< < Back
Terminal Aerodrome Forecast


Current Version              Previous Versions:   1  2  3  4  5  6  7  8  9  

Terminal Aerodrome Forecast

606
FTUS42 KTAE 190500
TAFTLH
TAF
KTLH 190531Z 1906/2006 35006KT P6SM SCT250
     FM191500 05007KT P6SM FEW250
     FM200000 05003KT P6SM FEW250=

Latest METAR

977
SAUS80 KWBC 200800 RRB
MTRTLH
METAR KTLH 200753Z AUTO 10SM CLR 12/09 A3005 RMK AO2 SLP176 T01220094
$


USA.gov is the U.S. government's official web portal to all federal, state and local government web resources and services.